Time;durP1;ratioP1;P1;durP2;ratioP2;P2;SDS_P1;SDS_P2;PMS_P1;PMS_P2;Temp;Humidity;BMP_temperature;BMP_pressure;BME280_temperature;BME280_humidity;BME280_pressure;Samples;Min_cycle;Max_cycle;Signal;HPM_P1;HPM_P2
2023/10/17 00:01:51;;;;;;;5.97;3.47;;;;;;;11.61;93.68;96367.63;5005598;28;20057;-88
2023/10/17 00:06:42;;;;;;;6.30;3.30;;;;;;;11.39;91.99;96382.22;5024433;28;20033;-89
2023/10/17 00:09:21;;;;;;;5.40;3.60;;;;;;;11.51;93.76;96383.59;4988718;28;20030;-88
2023/10/17 00:11:57;;;;;;;5.57;3.30;;;;;;;11.65;90.19;96381.31;4986399;28;20131;-88
2023/10/17 00:14:27;;;;;;;6.20;3.60;;;;;;;11.46;92.18;96379.78;5022241;28;20033;-89
2023/10/17 00:16:55;;;;;;;6.10;3.57;;;;;;;11.25;92.12;96378.41;5008663;28;20054;-88
2023/10/17 00:19:31;;;;;;;5.87;3.10;;;;;;;11.54;92.51;96380.63;4979168;28;20489;-88
2023/10/17 00:21:58;;;;;;;5.37;3.07;;;;;;;11.20;96.80;96372.81;5006058;28;20033;-87
2023/10/17 00:24:24;;;;;;;7.70;3.57;;;;;;;11.08;96.69;96368.81;5024025;28;20038;-87
2023/10/17 00:26:50;;;;;;;5.93;3.60;;;;;;;11.05;98.26;96366.50;4978990;28;20035;-88
2023/10/17 00:29:15;;;;;;;7.97;3.60;;;;;;;10.70;100.00;96356.97;5005534;28;20630;-88
2023/10/17 00:31:44;;;;;;;6.93;3.57;;;;;;;10.68;97.94;96358.94;4987420;28;20022;-88
2023/10/17 00:36:48;;;;;;;6.17;3.43;;;;;;;10.34;100.00;96347.41;5015738;28;20661;-87
2023/10/17 00:39:23;;;;;;;5.73;3.37;;;;;;;9.99;100.00;96343.00;4979844;28;20469;-88
2023/10/17 00:44:40;;;;;;;6.20;3.47;;;;;;;10.15;100.00;96332.63;5020505;28;20515;-88
2023/10/17 00:47:08;;;;;;;6.03;3.30;;;;;;;10.18;100.00;96331.50;4987039;28;20030;-88
2023/10/17 00:49:44;;;;;;;7.27;3.70;;;;;;;10.49;100.00;96334.50;4999799;28;20549;-88
2023/10/17 00:52:26;;;;;;;6.97;4.07;;;;;;;10.54;100.00;96336.69;4987196;28;20105;-88
2023/10/17 00:54:57;;;;;;;7.63;4.03;;;;;;;9.78;100.00;96326.75;5007404;28;20026;-88
2023/10/17 00:57:26;;;;;;;6.63;4.20;;;;;;;10.31;100.00;96325.88;4985134;28;20998;-88
2023/10/17 00:59:56;;;;;;;6.63;3.97;;;;;;;10.58;100.00;96327.50;5007885;28;20454;-88
2023/10/17 01:02:24;;;;;;;8.23;4.30;;;;;;;10.58;100.00;96323.03;5014541;28;20958;-88
2023/10/17 01:04:51;;;;;;;8.10;4.43;;;;;;;10.90;97.67;96310.19;5013626;28;20461;-88
2023/10/17 01:07:27;;;;;;;8.87;4.37;;;;;;;10.96;97.53;96310.38;5003978;28;20117;-82
2023/10/17 01:10:05;;;;;;;6.70;4.10;;;;;;;11.07;97.98;96306.63;5005420;28;20452;-88
2023/10/17 01:12:33;;;;;;;10.63;4.30;;;;;;;11.00;96.32;96302.97;5007114;28;20037;-87
2023/10/17 01:14:59;;;;;;;7.43;4.30;;;;;;;11.26;94.51;96294.97;5009129;28;20508;-87
2023/10/17 01:17:25;;;;;;;8.73;4.03;;;;;;;10.80;96.30;96297.19;4998137;28;20457;-88
2023/10/17 01:19:53;;;;;;;7.07;3.70;;;;;;;10.79;96.57;96287.63;4999710;28;20045;-88
2023/10/17 01:22:22;;;;;;;9.13;4.40;;;;;;;10.95;97.61;96282.41;5004503;28;20545;-84
2023/10/17 01:24:48;;;;;;;7.20;4.27;;;;;;;10.97;95.05;96285.72;5005308;28;20460;-88
2023/10/17 01:27:14;;;;;;;6.73;3.90;;;;;;;10.47;98.79;96280.44;5013021;28;20026;-88
2023/10/17 01:29:44;;;;;;;7.30;3.97;;;;;;;10.65;98.31;96285.59;4998364;28;20033;-88
2023/10/17 01:32:15;;;;;;;10.00;4.80;;;;;;;10.54;98.27;96284.91;5005131;28;20026;-88
2023/10/17 01:34:47;;;;;;;6.93;4.40;;;;;;;10.87;97.66;96284.22;5021737;28;20855;-87
2023/10/17 01:37:16;;;;;;;7.68;3.90;;;;;;;10.85;98.34;96279.09;5014441;28;20449;-87
2023/10/17 01:39:48;;;;;;;6.73;4.13;;;;;;;10.77;99.09;96284.34;5002596;28;20154;-87
2023/10/17 01:42:22;;;;;;;7.40;4.47;;;;;;;10.66;97.84;96282.81;5002530;28;20508;-89
2023/10/17 01:44:50;;;;;;;8.00;4.00;;;;;;;10.77;97.19;96281.72;4986426;28;20445;-88
2023/10/17 01:47:18;;;;;;;6.03;4.30;;;;;;;10.70;96.93;96280.72;4998724;28;20484;-88
2023/10/17 01:49:43;;;;;;;6.83;4.67;;;;;;;10.72;98.68;96283.97;5020461;28;21041;-89
2023/10/17 01:52:11;;;;;;;9.17;5.10;;;;;;;10.31;100.00;96273.28;5003610;28;20453;-88
2023/10/17 01:54:47;;;;;;;8.37;4.37;;;;;;;10.50;99.94;96274.88;4996361;28;20089;-88
2023/10/17 01:57:13;;;;;;;6.87;3.90;;;;;;;10.19;100.00;96280.56;4997238;28;20468;-88
2023/10/17 01:59:38;;;;;;;8.40;4.40;;;;;;;10.33;100.00;96279.22;5010331;28;20445;-85
2023/10/17 02:02:05;;;;;;;10.73;6.53;;;;;;;10.12;100.00;96288.25;5014097;28;20018;-88
2023/10/17 02:04:40;;;;;;;7.03;4.17;;;;;;;10.35;100.00;96280.69;4995329;28;21002;-87
2023/10/17 02:07:06;;;;;;;7.67;3.73;;;;;;;10.66;98.69;96287.25;5008576;28;20057;-88
2023/10/17 02:12:19;;;;;;;7.93;3.97;;;;;;;10.18;100.00;96296.50;5014086;28;20064;-89
2023/10/17 02:14:45;;;;;;;8.33;4.33;;;;;;;10.23;100.00;96302.09;5014414;28;20120;-88
2023/10/17 02:17:15;;;;;;;6.70;3.57;;;;;;;10.06;100.00;96298.56;4998779;28;20489;-81
2023/10/17 02:19:41;;;;;;;6.37;3.87;;;;;;;9.66;100.00;96299.94;5015122;28;20496;-84
2023/10/17 02:22:09;;;;;;;6.70;3.40;;;;;;;9.99;100.00;96305.41;5012513;28;20461;-85
2023/10/17 02:24:36;;;;;;;6.67;3.70;;;;;;;10.37;100.00;96312.09;4995279;28;21061;-85
2023/10/17 02:27:06;;;;;;;6.53;3.70;;;;;;;9.61;100.00;96303.00;4997101;28;20484;-90
2023/10/17 02:29:35;;;;;;;9.23;4.30;;;;;;;10.11;100.00;96302.38;4995600;28;20504;-89
2023/10/17 02:32:01;;;;;;;7.20;4.40;;;;;;;10.10;99.76;96298.13;5002790;28;20527;-87
2023/10/17 02:34:29;;;;;;;7.13;3.80;;;;;;;10.14;100.00;96309.94;5007866;28;21099;-88
2023/10/17 02:36:55;;;;;;;7.00;3.97;;;;;;;10.38;100.00;96311.94;4991630;28;20030;-89
2023/10/17 02:39:22;;;;;;;7.63;4.40;;;;;;;10.46;100.00;96311.16;5006455;28;20452;-89
2023/10/17 02:42:06;;;;;;;6.27;3.67;;;;;;;10.57;95.15;96316.16;4974019;28;21330;-87
2023/10/17 02:44:40;;;;;;;8.13;4.30;;;;;;;10.55;96.51;96320.72;5006024;28;20041;-88
2023/10/17 02:47:11;;;;;;;8.17;4.73;;;;;;;10.60;97.13;96320.28;4997424;28;20468;-89
2023/10/17 02:49:38;;;;;;;8.53;4.77;;;;;;;10.69;96.52;96311.41;4996097;28;20466;-88
2023/10/17 02:52:11;;;;;;;6.97;3.93;;;;;;;10.41;97.58;96310.81;4990980;28;21054;-89
2023/10/17 02:54:59;;;;;;;8.38;4.70;;;;;;;10.32;96.20;96306.47;4981520;28;20557;-88
2023/10/17 02:57:23;;;;;;;6.03;4.30;;;;;;;10.36;98.37;96313.06;4999561;28;20049;-89
2023/10/17 02:59:51;;;;;;;6.73;4.10;;;;;;;10.48;98.07;96305.75;4992901;28;20524;-88
2023/10/17 03:02:36;;;;;;;7.33;4.00;;;;;;;10.58;95.28;96306.44;4999042;28;20511;-89
2023/10/17 03:05:11;;;;;;;9.13;4.27;;;;;;;10.44;94.48;96314.94;4993958;28;20464;-88
2023/10/17 03:07:36;;;;;;;7.97;3.77;;;;;;;10.67;96.20;96316.03;5017150;28;20488;-89
2023/10/17 03:10:03;;;;;;;6.40;4.13;;;;;;;10.48;94.76;96311.81;4999139;28;20995;-87
2023/10/17 03:12:29;;;;;;;7.80;3.73;;;;;;;10.34;96.60;96307.97;4998623;28;20030;-88
2023/10/17 03:17:23;;;;;;;7.00;3.70;;;;;;;10.17;99.72;96305.38;5011653;28;20829;-88
2023/10/17 03:19:49;;;;;;;5.73;3.30;;;;;;;10.05;100.00;96297.72;5003426;28;20475;-88
2023/10/17 03:22:27;;;;;;;10.07;6.63;;;;;;;9.84;100.00;96298.09;5009876;28;20469;-86
2023/10/17 03:25:01;;;;;;;13.17;7.63;;;;;;;10.02;100.00;96300.66;5001227;28;20014;-87
2023/10/17 03:27:48;;;;;;;9.73;6.37;;;;;;;9.45;100.00;96300.22;5023676;28;20457;-84
2023/10/17 03:30:19;;;;;;;8.37;5.37;;;;;;;9.43;100.00;96307.44;5000809;28;20449;-87
2023/10/17 03:33:04;;;;;;;25.60;15.10;;;;;;;8.93;100.00;96298.25;4984748;28;20485;-88
2023/10/17 03:35:35;;;;;;;31.53;16.00;;;;;;;9.45;100.00;96287.91;5000053;28;20460;-89
2023/10/17 03:38:04;;;;;;;13.23;7.57;;;;;;;9.41;100.00;96283.94;4986148;28;21067;-88
2023/10/17 03:40:34;;;;;;;9.50;5.47;;;;;;;9.70;100.00;96282.06;4992199;28;20457;-88
2023/10/17 03:43:21;;;;;;;9.83;4.93;;;;;;;9.95;100.00;96283.06;5008592;28;20556;-88
2023/10/17 03:45:56;;;;;;;7.27;4.23;;;;;;;9.65;100.00;96291.19;4999552;28;20453;-89
2023/10/17 03:48:23;;;;;;;8.03;4.30;;;;;;;9.33;100.00;96285.69;5000597;28;20464;-89
2023/10/17 03:50:59;;;;;;;8.40;4.40;;;;;;;9.39;100.00;96285.91;4994008;28;20449;-89
2023/10/17 03:53:28;;;;;;;9.30;4.23;;;;;;;9.53;100.00;96289.00;4995337;28;21087;-88
2023/10/17 03:55:54;;;;;;;7.47;4.83;;;;;;;9.33;100.00;96283.91;4980487;28;20468;-87
2023/10/17 04:00:54;;;;;;;9.43;4.60;;;;;;;9.34;100.00;96282.91;5012295;28;20477;-88
2023/10/17 04:03:43;;;;;;;8.47;4.83;;;;;;;9.48;100.00;96278.94;4995161;28;20453;-88
2023/10/17 04:08:48;;;;;;;10.83;5.67;;;;;;;9.75;100.00;96277.16;5012369;28;20465;-85
2023/10/17 04:11:18;;;;;;;8.53;5.10;;;;;;;9.98;100.00;96280.94;5001831;28;20026;-87
2023/10/17 04:14:17;;;;;;;8.40;5.17;;;;;;;9.98;100.00;96278.31;4986550;28;21144;-89
2023/10/17 04:17:24;;;;;;;9.83;5.07;;;;;;;10.41;100.00;96273.19;5027242;28;20491;-87
2023/10/17 04:34:46;;;;;;;7.33;4.40;;;;;;;10.33;100.00;96266.91;5018830;28;20481;-83
2023/10/17 04:46:26;;;;;;;10.63;4.93;;;;;;;10.12;100.00;96255.91;4972469;28;20513;-85
2023/10/17 04:49:51;;;;;;;9.43;5.17;;;;;;;9.78;100.00;96247.97;4969889;28;20478;-86
2023/10/17 04:52:57;;;;;;;12.57;7.47;;;;;;;9.07;100.00;96246.25;4987334;28;20455;-82
2023/10/17 04:55:40;;;;;;;18.00;10.37;;;;;;;9.56;100.00;96250.13;4982476;28;20474;-83
2023/10/17 05:03:46;;;;;;;7.80;4.47;;;;;;;9.64;100.00;96242.31;5007605;28;20540;-87
2023/10/17 05:06:18;;;;;;;9.20;5.50;;;;;;;9.70;100.00;96242.69;4994567;28;20511;-87
2023/10/17 06:19:53;;;;;;;15.07;7.00;;;;;;;11.71;100.00;96241.84;5021910;28;20034;-81
2023/10/17 06:26:22;;;;;;;11.67;7.80;;;;;;;11.62;98.23;96247.28;4997555;28;20460;-86
2023/10/17 06:30:05;;;;;;;13.03;6.80;;;;;;;11.20;100.00;96257.00;4984252;28;20038;-86
2023/10/17 06:35:03;;;;;;;13.40;6.63;;;;;;;10.96;100.00;96264.81;4997233;28;20472;-85
2023/10/17 06:37:35;;;;;;;16.77;8.00;;;;;;;10.78;100.00;96272.84;4993234;28;20022;-85
2023/10/17 06:40:15;;;;;;;12.73;7.70;;;;;;;10.81;100.00;96275.16;4988461;28;20033;-86
2023/10/17 06:43:13;;;;;;;14.33;8.10;;;;;;;11.22;100.00;96262.91;5002170;28;20121;-86
2023/10/17 06:45:57;;;;;;;13.30;7.70;;;;;;;11.31;98.52;96272.47;5014275;28;20053;-82
2023/10/17 06:48:32;;;;;;;12.37;7.63;;;;;;;10.86;100.00;96270.22;5017856;28;20050;-83
2023/10/17 06:53:55;;;;;;;11.73;7.57;;;;;;;11.31;100.00;96269.00;4999692;28;20046;-86
2023/10/17 06:56:21;;;;;;;14.63;8.20;;;;;;;11.47;100.00;96273.47;5004739;28;20488;-85
2023/10/17 06:58:47;;;;;;;12.13;7.47;;;;;;;11.72;100.00;96267.22;5001572;28;20461;-85
2023/10/17 07:01:35;;;;;;;15.43;8.30;;;;;;;11.88;96.56;96266.41;4988904;28;20485;-84
2023/10/17 07:04:01;;;;;;;17.67;11.47;;;;;;;12.07;98.90;96273.13;5020675;28;20477;-86
2023/10/17 07:06:29;;;;;;;18.07;11.97;;;;;;;12.06;97.75;96275.94;4995523;28;20022;-86
2023/10/17 07:08:54;;;;;;;31.20;18.10;;;;;;;12.38;99.11;96281.16;4977235;28;20409;-87
2023/10/17 07:14:22;;;;;;;20.37;14.37;;;;;;;12.43;95.64;96286.72;4997508;28;20452;-84
2023/10/17 07:16:57;;;;;;;13.02;7.90;;;;;;;12.55;93.14;96281.09;4998143;28;20050;-83
2023/10/17 07:40:15;;;;;;;16.77;9.27;;;;;;;11.57;100.00;96272.31;4915621;29;20036;-83
2023/10/17 07:42:34;;;;;;;18.37;10.37;;;;;;;11.43;100.00;96265.06;4954026;28;20038;-84
2023/10/17 07:45:03;;;;;;;18.40;10.33;;;;;;;11.62;100.00;96261.28;5008050;28;20022;-84
2023/10/17 07:47:34;;;;;;;14.97;9.70;;;;;;;12.05;100.00;96264.56;4991187;28;20453;-83
2023/10/17 07:50:00;;;;;;;15.97;10.17;;;;;;;11.98;100.00;96264.41;4991690;28;20026;-83
2023/10/17 07:52:30;;;;;;;17.67;10.23;;;;;;;12.01;100.00;96258.81;5012134;28;20018;-83
2023/10/17 07:54:59;;;;;;;14.83;9.83;;;;;;;12.20;100.00;96257.59;5006489;28;20026;-84
2023/10/17 07:57:26;;;;;;;17.47;10.20;;;;;;;12.07;100.00;96259.13;5000479;28;20026;-84
2023/10/17 07:59:52;;;;;;;17.10;11.37;;;;;;;12.15;100.00;96261.75;5020794;28;20053;-84
2023/10/17 08:02:23;;;;;;;15.37;10.03;;;;;;;12.67;100.00;96263.88;5003171;28;20061;-84
2023/10/17 08:04:49;;;;;;;15.17;9.90;;;;;;;12.65;99.80;96265.88;5005403;28;20033;-84
2023/10/17 08:07:20;;;;;;;15.03;10.47;;;;;;;12.80;100.00;96258.88;5005955;28;20026;-84
2023/10/17 08:09:58;;;;;;;15.90;10.27;;;;;;;12.60;100.00;96257.66;4993135;28;20022;-82
2023/10/17 08:12:38;;;;;;;15.70;10.13;;;;;;;13.08;98.54;96253.16;5008795;28;20032;-83
2023/10/17 08:15:19;;;;;;;20.17;9.67;;;;;;;12.89;100.00;96255.22;4986827;28;20025;-83
2023/10/17 08:17:48;;;;;;;16.97;10.87;;;;;;;13.26;93.46;96250.25;4998990;28;20034;-85
2023/10/17 08:25:32;;;;;;;16.67;10.47;;;;;;;13.89;91.41;96255.19;5004026;28;20021;-83
2023/10/17 08:27:58;;;;;;;14.33;9.70;;;;;;;13.52;93.64;96263.13;5017983;28;20021;-83
2023/10/17 08:30:34;;;;;;;17.30;10.93;;;;;;;12.95;97.79;96270.38;4993962;28;20033;-84
2023/10/17 08:33:37;;;;;;;16.83;11.20;;;;;;;13.60;91.28;96265.69;5008786;28;20038;-84
2023/10/17 08:37:07;;;;;;;10.60;7.83;;;;;;;13.13;98.67;96256.06;5006667;28;20120;-84
2023/10/17 08:40:00;;;;;;;13.60;9.10;;;;;;;13.88;91.80;96253.56;4997945;28;20041;-84
2023/10/17 08:43:06;;;;;;;18.47;11.97;;;;;;;12.81;95.33;96255.25;4990476;28;20037;-84
2023/10/17 08:46:33;;;;;;;19.83;10.80;;;;;;;14.46;92.22;96250.31;4980323;28;20022;-84
2023/10/17 08:49:54;;;;;;;17.87;11.13;;;;;;;14.31;93.68;96243.19;4992846;28;20023;-84
2023/10/17 08:52:28;;;;;;;18.53;11.73;;;;;;;15.65;76.95;96227.81;5007857;28;20053;-85
2023/10/17 08:55:15;;;;;;;15.57;10.67;;;;;;;15.25;83.78;96239.88;5010242;28;20032;-85
2023/10/17 08:57:40;;;;;;;16.27;10.37;;;;;;;14.64;89.53;96252.63;5002596;28;20030;-85
2023/10/17 09:00:23;;;;;;;24.00;15.00;;;;;;;15.18;81.09;96249.59;5003083;28;20030;-84
2023/10/17 09:03:02;;;;;;;18.53;12.70;;;;;;;14.49;85.24;96255.25;4996843;28;20027;-84
2023/10/17 09:16:43;;;;;;;18.03;11.87;;;;;;;14.10;86.65;96248.38;5006878;28;20044;-84
2023/10/17 09:20:11;;;;;;;19.47;11.70;;;;;;;14.78;83.33;96239.34;4992431;28;20060;-85
2023/10/17 09:23:23;;;;;;;15.60;10.67;;;;;;;14.91;81.88;96243.16;4998808;28;20045;-84
2023/10/17 09:25:56;;;;;;;18.07;11.57;;;;;;;14.72;83.08;96228.69;4983626;28;20185;-84
2023/10/17 09:28:57;;;;;;;17.85;11.80;;;;;;;14.84;83.42;96235.16;5024617;28;20036;-84
2023/10/17 09:32:41;;;;;;;18.23;11.50;;;;;;;14.36;84.28;96237.38;4995684;28;20054;-85
2023/10/17 09:36:22;;;;;;;18.10;10.87;;;;;;;14.54;88.30;96237.00;5006389;28;20078;-84
2023/10/17 09:39:46;;;;;;;15.00;9.73;;;;;;;14.71;83.70;96235.81;5009527;28;21258;-84
2023/10/17 09:42:45;;;;;;;14.77;10.83;;;;;;;14.38;88.63;96241.47;5009276;28;20036;-84
2023/10/17 09:46:04;;;;;;;17.07;10.53;;;;;;;16.22;76.03;96228.69;5015868;28;20026;-85
2023/10/17 09:53:14;;;;;;;17.33;9.67;;;;;;;16.91;72.36;96222.53;5009086;28;20061;-85
2023/10/17 09:55:50;;;;;;;14.50;9.33;;;;;;;17.02;68.85;96221.94;5000758;28;20041;-83
2023/10/17 09:58:41;;;;;;;17.60;10.93;;;;;;;17.44;66.55;96222.66;4984323;28;20033;-84
2023/10/17 10:01:31;;;;;;;14.70;9.93;;;;;;;15.30;80.16;96235.66;4985119;28;20034;-84
2023/10/17 10:04:21;;;;;;;30.07;12.00;;;;;;;17.40;84.50;96224.06;4982516;28;20046;-84
2023/10/17 10:11:16;;;;;;;12.87;8.40;;;;;;;17.22;69.34;96214.03;4968929;28;20185;-83
2023/10/17 10:14:13;;;;;;;12.80;8.23;;;;;;;16.96;72.05;96214.75;4973229;28;20068;-81
2023/10/17 10:17:55;;;;;;;13.53;8.43;;;;;;;17.08;73.15;96213.19;5006262;28;20054;-83
2023/10/17 10:22:13;;;;;;;13.70;7.93;;;;;;;17.49;66.50;96216.72;4955772;28;20043;-83
2023/10/17 10:25:40;;;;;;;14.60;9.37;;;;;;;17.73;67.31;96216.13;4881901;29;20610;-83
2023/10/17 10:37:53;;;;;;;11.00;6.83;;;;;;;18.04;65.35;96215.56;4900433;29;20627;-84
2023/10/17 10:41:13;;;;;;;8.18;4.80;;;;;;;17.39;67.77;96211.81;4861072;29;20044;-84
2023/10/17 10:44:06;;;;;;;10.70;6.83;;;;;;;17.51;66.84;96204.88;4948044;28;20034;-84
2023/10/17 10:47:15;;;;;;;10.83;6.70;;;;;;;17.11;69.99;96212.78;4993724;28;20047;-84
2023/10/17 10:49:40;;;;;;;9.60;6.40;;;;;;;16.89;72.74;96208.63;5015689;28;20427;-84
2023/10/17 10:52:06;;;;;;;9.37;6.93;;;;;;;17.48;69.39;96215.09;4975777;28;20022;-84
2023/10/17 10:54:54;;;;;;;14.93;7.33;;;;;;;18.14;65.21;96215.09;5005810;28;20022;-84
2023/10/17 10:57:29;;;;;;;11.93;6.23;;;;;;;18.62;61.58;96217.47;4991887;28;20041;-84
2023/10/17 10:59:55;;;;;;;8.27;5.93;;;;;;;18.62;60.29;96222.78;4995185;28;20493;-84
2023/10/17 11:02:21;;;;;;;12.37;7.17;;;;;;;19.02;59.96;96222.66;5014557;28;20022;-83
2023/10/17 11:04:47;;;;;;;8.77;5.43;;;;;;;19.05;57.99;96220.41;5014620;28;20412;-83
2023/10/17 11:07:27;;;;;;;14.83;6.33;;;;;;;18.22;61.37;96217.56;5004829;28;20025;-83
2023/10/17 11:10:07;;;;;;;10.37;6.67;;;;;;;18.41;61.73;96221.22;5012605;28;20121;-84
2023/10/17 11:12:33;;;;;;;11.00;6.77;;;;;;;17.86;62.50;96212.69;5017277;28;20032;-83
2023/10/17 11:15:18;;;;;;;21.33;14.70;;;;;;;18.29;62.08;96213.03;5006427;28;20489;-84
2023/10/17 11:17:45;;;;;;;11.93;6.77;;;;;;;18.80;59.87;96204.31;5005913;28;20019;-83
2023/10/17 11:20:18;;;;;;;12.00;7.27;;;;;;;18.50;61.87;96214.63;4993193;28;20027;-84
2023/10/17 11:22:44;;;;;;;9.35;6.50;;;;;;;18.47;61.20;96208.91;4999898;28;20196;-85
2023/10/17 11:25:21;;;;;;;12.77;7.33;;;;;;;17.77;60.46;96213.91;5000892;28;20018;-84
2023/10/17 11:27:55;;;;;;;14.83;7.57;;;;;;;18.08;65.40;96208.78;5020121;28;20037;-85
2023/10/17 11:30:34;;;;;;;14.00;6.83;;;;;;;18.26;63.52;96210.78;4997814;28;20018;-84
2023/10/17 11:33:10;;;;;;;10.17;7.17;;;;;;;18.56;62.74;96205.78;4993319;28;20076;-84
2023/10/17 11:35:50;;;;;;;14.20;7.40;;;;;;;17.16;69.23;96201.53;4993642;28;20030;-84
2023/10/17 11:38:56;;;;;;;11.13;6.93;;;;;;;17.53;66.45;96194.84;5001506;28;20022;-83
2023/10/17 11:41:17;;;;;;;11.37;7.63;;;;;;;17.69;66.93;96201.59;4992539;28;20133;-84
2023/10/17 11:43:51;;;;;;;10.13;5.97;;;;;;;17.46;69.25;96202.00;5000501;28;20061;-85
2023/10/17 11:46:29;;;;;;;12.53;7.13;;;;;;;17.20;71.71;96203.59;5019022;28;20022;-84
2023/10/17 11:49:20;;;;;;;9.80;6.03;;;;;;;17.62;66.67;96198.94;5000884;28;20480;-83
2023/10/17 11:52:09;;;;;;;10.13;7.13;;;;;;;17.10;66.03;96197.88;4996736;28;20180;-84
2023/10/17 11:55:00;;;;;;;13.00;6.33;;;;;;;16.02;76.03;96191.41;5003817;28;20485;-83
2023/10/17 11:57:28;;;;;;;12.83;5.97;;;;;;;17.04;73.11;96181.91;4998865;28;20069;-86
2023/10/17 11:59:56;;;;;;;11.53;6.63;;;;;;;17.40;68.72;96181.53;5002618;28;20025;-85
2023/10/17 12:02:23;;;;;;;9.33;5.60;;;;;;;15.47;84.48;96185.06;5000435;28;20026;-85
2023/10/17 12:04:49;;;;;;;10.80;6.30;;;;;;;15.92;78.35;96182.97;5008949;28;20459;-85
2023/10/17 12:07:15;;;;;;;10.90;6.70;;;;;;;17.24;71.00;96174.78;5001129;28;20042;-85
2023/10/17 12:09:41;;;;;;;12.43;6.03;;;;;;;17.19;71.93;96171.91;5004113;28;20072;-85
2023/10/17 12:12:22;;;;;;;8.80;5.23;;;;;;;16.79;72.84;96181.63;5011536;28;20117;-85
2023/10/17 12:14:48;;;;;;;8.93;6.07;;;;;;;17.62;69.00;96176.84;5009188;28;20030;-85
2023/10/17 12:17:23;;;;;;;8.83;5.43;;;;;;;16.67;71.33;96179.50;4993477;28;20041;-86
2023/10/17 12:19:53;;;;;;;8.00;5.20;;;;;;;16.90;71.56;96173.91;4996795;28;20018;-85
2023/10/17 12:22:25;;;;;;;11.77;5.23;;;;;;;17.22;69.63;96171.50;4998766;28;20042;-86
2023/10/17 12:24:56;;;;;;;10.13;6.57;;;;;;;16.46;74.48;96180.44;4993528;28;20044;-86
2023/10/17 12:27:22;;;;;;;8.80;4.97;;;;;;;17.14;72.31;96172.53;5000790;28;21437;-86
2023/10/17 12:29:50;;;;;;;11.97;5.93;;;;;;;16.44;74.93;96171.84;4995957;28;20080;-86
2023/10/17 12:32:18;;;;;;;10.13;5.40;;;;;;;17.03;70.07;96159.81;4968901;28;20041;-86
2023/10/17 12:35:34;;;;;;;9.93;5.47;;;;;;;16.71;76.77;96161.34;5002675;28;20410;-86
2023/10/17 12:45:52;;;;;;;11.00;5.37;;;;;;;16.24;80.28;96145.22;4969452;28;20034;-86
2023/10/17 12:52:44;;;;;;;10.57;5.40;;;;;;;16.85;70.44;96133.00;4988439;28;20061;-89
2023/10/17 12:56:36;;;;;;;7.80;5.03;;;;;;;16.74;73.23;96139.69;4947099;29;20050;-87
2023/10/17 13:07:15;;;;;;;11.70;5.32;;;;;;;16.82;75.85;96126.25;4957477;28;20031;-88
2023/10/17 13:14:17;;;;;;;7.90;5.03;;;;;;;16.91;71.73;96116.28;4944941;29;20041;-86
2023/10/17 13:25:27;;;;;;;7.47;4.80;;;;;;;15.85;78.48;96108.69;4954307;28;20094;-87
2023/10/17 13:35:41;;;;;;;7.57;4.40;;;;;;;15.55;84.83;96102.75;4955093;28;20069;-88
2023/10/17 13:49:24;;;;;;;10.57;4.30;;;;;;;17.08;73.92;96106.91;4960879;28;20053;-87
2023/10/17 13:55:55;;;;;;;7.87;4.40;;;;;;;16.46;79.33;96099.97;4955452;28;20163;-86
2023/10/17 13:58:21;;;;;;;9.47;6.20;;;;;;;16.60;77.22;96107.00;4946670;28;20027;-86
2023/10/17 14:00:51;;;;;;;8.10;5.07;;;;;;;16.73;75.18;96106.19;4938450;29;20035;-86
2023/10/17 14:03:17;;;;;;;8.37;5.00;;;;;;;16.14;76.49;96109.47;4962352;28;20057;-87
2023/10/17 14:05:47;;;;;;;8.77;4.77;;;;;;;15.70;79.69;96103.50;4987274;28;20073;-86
2023/10/17 14:08:13;;;;;;;9.43;5.30;;;;;;;16.32;78.08;96095.66;5017274;28;20461;-87
2023/10/17 14:10:43;;;;;;;9.00;4.93;;;;;;;15.64;86.47;96098.13;5004575;28;20114;-88
2023/10/17 14:13:17;;;;;;;8.10;4.50;;;;;;;16.15;81.97;96103.94;5018227;28;20034;-88
2023/10/17 14:15:43;;;;;;;7.03;4.67;;;;;;;16.18;80.15;96098.25;5002270;28;20026;-88
2023/10/17 14:18:09;;;;;;;9.03;5.13;;;;;;;16.49;77.40;96104.88;5021113;28;20019;-87
2023/10/17 14:20:38;;;;;;;6.03;4.00;;;;;;;17.16;73.26;96095.25;4988200;28;20057;-87
2023/10/17 14:23:16;;;;;;;6.70;4.03;;;;;;;16.58;76.33;96103.69;4977799;28;20022;-87
2023/10/17 14:28:34;;;;;;;7.17;4.40;;;;;;;17.31;72.82;96097.72;5000181;28;20366;-87
2023/10/17 14:31:05;;;;;;;8.33;4.07;;;;;;;16.22;81.34;96082.75;4981029;28;20492;-87
2023/10/17 14:33:32;;;;;;;8.37;4.23;;;;;;;16.24;84.60;96075.41;4994019;28;20045;-88
2023/10/17 14:36:03;;;;;;;9.23;4.97;;;;;;;16.24;82.20;96076.22;4994964;28;20073;-88
2023/10/17 14:38:40;;;;;;;7.97;4.90;;;;;;;17.29;77.35;96070.50;5006999;28;20026;-89
2023/10/17 14:41:10;;;;;;;8.87;4.47;;;;;;;17.03;77.40;96076.63;4995012;28;20061;-88
2023/10/17 14:43:35;;;;;;;8.43;4.30;;;;;;;17.18;74.65;96077.28;4996284;28;20029;-87
2023/10/17 14:46:06;;;;;;;5.80;3.43;;;;;;;16.53;76.16;96078.75;4994630;28;20108;-87
2023/10/17 14:48:32;;;;;;;7.87;4.60;;;;;;;16.86;76.40;96079.69;4997177;28;20036;-87
2023/10/17 14:51:01;;;;;;;10.03;4.40;;;;;;;15.92;81.97;96076.91;5004176;28;20030;-86
2023/10/17 14:53:26;;;;;;;9.50;4.30;;;;;;;15.69;82.33;96078.03;4998559;28;20049;-87
2023/10/17 14:55:59;;;;;;;8.20;4.20;;;;;;;16.53;81.82;96068.97;5010676;28;20394;-86
2023/10/17 14:58:46;;;;;;;4.77;3.20;;;;;;;16.69;76.64;96081.06;5001475;28;20018;-84
2023/10/17 15:01:12;;;;;;;7.43;3.67;;;;;;;16.94;77.73;96082.16;4995039;28;20377;-84
2023/10/17 15:03:38;;;;;;;8.77;4.77;;;;;;;17.34;74.41;96082.19;4993262;28;20011;-89
2023/10/17 15:06:06;;;;;;;10.50;4.63;;;;;;;17.15;73.68;96080.34;4993913;28;20034;-88
2023/10/17 15:09:39;;;;;;;;;;;;;;;;;;;;;
2023/10/17 15:19:00;;;;;;;12.53;5.20;;;;;;;15.87;84.62;96092.59;5004769;28;20030;-89
2023/10/17 15:21:28;;;;;;;8.73;4.63;;;;;;;15.86;84.55;96083.81;4999887;28;20363;-89
2023/10/17 15:23:58;;;;;;;10.23;4.80;;;;;;;15.63;85.46;96081.41;5006271;28;20061;-88
2023/10/17 15:26:27;;;;;;;7.77;4.13;;;;;;;16.13;85.50;96068.84;4999835;28;20129;-88
2023/10/17 15:29:05;;;;;;;6.50;4.17;;;;;;;16.10;83.76;96079.84;4994407;28;20034;-88
2023/10/17 15:31:53;;;;;;;7.60;4.37;;;;;;;15.30;85.69;96094.44;5020348;28;20035;-89
2023/10/17 15:34:28;;;;;;;7.53;4.47;;;;;;;15.85;83.53;96092.78;5013701;28;20034;-89
2023/10/17 15:37:00;;;;;;;12.33;4.97;;;;;;;14.95;89.64;96093.50;4973811;28;20050;-89
2023/10/17 15:39:29;;;;;;;13.20;4.67;;;;;;;15.08;92.39;96088.31;4992994;28;20044;-88
2023/10/17 15:42:00;;;;;;;8.57;4.77;;;;;;;14.72;92.53;96102.47;4992805;28;20034;-88
2023/10/17 15:44:35;;;;;;;7.47;4.60;;;;;;;15.48;89.12;96096.59;5003500;28;20033;-89
2023/10/17 15:47:20;;;;;;;16.43;10.37;;;;;;;15.07;92.11;96106.03;5009441;28;20105;-88
2023/10/17 15:49:48;;;;;;;10.17;5.83;;;;;;;15.60;88.46;96100.34;5011274;28;20038;-87
2023/10/17 15:52:14;;;;;;;13.47;5.70;;;;;;;15.20;91.67;96104.53;4992480;28;20029;-87
2023/10/17 15:54:40;;;;;;;8.87;5.33;;;;;;;15.24;93.22;96108.44;5006912;28;20037;-88
2023/10/17 15:57:12;;;;;;;7.53;4.50;;;;;;;14.83;94.45;96106.44;4998524;28;20033;-87
2023/10/17 15:59:58;;;;;;;10.43;6.20;;;;;;;14.46;97.64;96110.91;4994303;28;20026;-87
2023/10/17 16:02:28;;;;;;;9.00;4.97;;;;;;;14.39;99.97;96112.66;4996167;28;20026;-88
2023/10/17 16:04:57;;;;;;;11.33;5.77;;;;;;;14.48;97.70;96116.00;4992369;28;20093;-88
2023/10/17 16:07:29;;;;;;;9.17;4.40;;;;;;;14.66;100.00;96113.81;5002230;28;20026;-88
2023/10/17 16:10:07;;;;;;;8.60;4.73;;;;;;;14.69;99.23;96109.94;5008347;28;20030;-89
2023/10/17 16:12:58;;;;;;;9.67;5.73;;;;;;;14.42;100.00;96112.28;5014092;28;20420;-88
2023/10/17 16:15:41;;;;;;;8.63;4.87;;;;;;;14.56;100.00;96103.53;5003343;28;20072;-88
2023/10/17 16:18:11;;;;;;;10.37;5.20;;;;;;;14.23;100.00;96107.56;4998919;28;20050;-88
2023/10/17 16:20:38;;;;;;;9.13;4.73;;;;;;;14.26;100.00;96108.03;5002625;28;20040;-89
2023/10/17 16:23:06;;;;;;;8.33;5.00;;;;;;;14.13;100.00;96107.88;4993150;28;20026;-88
2023/10/17 16:25:34;;;;;;;9.57;5.07;;;;;;;13.73;100.00;96107.31;5016991;28;20026;-88
2023/10/17 16:28:01;;;;;;;8.50;5.73;;;;;;;13.80;100.00;96107.41;4980459;28;20026;-88